createdAt,value
2018-06-17T00:00:42.438Z,45.93
2018-06-17T00:05:46.252Z,46.33
2018-06-17T00:10:49.951Z,35.67
2018-06-17T00:15:53.040Z,31.17
2018-06-17T00:20:56.185Z,41.27
2018-06-17T00:25:59.410Z,25.13
2018-06-17T00:31:02.432Z,29.70
2018-06-17T00:36:06.521Z,26.13
2018-06-17T00:41:09.891Z,50.80
2018-06-17T00:46:13.060Z,29.67
2018-06-17T00:51:16.151Z,31.97
2018-06-17T00:56:19.512Z,33.03
2018-06-17T01:01:22.881Z,24.73
2018-06-17T01:06:26.229Z,34.40
2018-06-17T01:11:30.099Z,41.47
2018-06-17T01:16:33.157Z,29.03
2018-06-17T01:21:36.696Z,29.17
2018-06-17T01:26:39.812Z,38.73
2018-06-17T01:31:42.860Z,26.50
2018-06-17T01:36:46.219Z,27.70
2018-06-17T01:41:49.701Z,27.73
2018-06-17T01:46:52.815Z,27.57
2018-06-17T01:51:55.835Z,24.13
2018-06-17T01:56:58.897Z,21.23
2018-06-17T02:02:02.050Z,17.77
2018-06-17T02:07:11.008Z,19.90
2018-06-17T02:12:18.224Z,22.33
2018-06-17T02:17:22.829Z,20.77
2018-06-17T02:22:25.904Z,26.87
2018-06-17T02:27:29.276Z,24.07
2018-06-17T02:32:32.502Z,17.70
2018-06-17T02:37:35.679Z,27.67
2018-06-17T02:42:38.809Z,24.27
2018-06-17T02:47:48.100Z,14.13
2018-06-17T02:52:56.680Z,23.77
2018-06-17T02:57:59.533Z,37.93
2018-06-17T03:03:08.555Z,19.60
2018-06-17T03:08:17.738Z,25.10
2018-06-17T03:19:27.347Z,21.57
2018-06-17T03:24:36.251Z,22.07
2018-06-17T03:29:45.048Z,43.57
2018-06-17T03:34:53.697Z,19.17
2018-06-17T03:39:57.233Z,16.13
2018-06-17T03:45:00.225Z,19.57
2018-06-17T03:50:03.286Z,31.80
2018-06-17T03:55:06.738Z,41.10
2018-06-17T04:00:10.044Z,36.07
2018-06-17T04:05:18.521Z,30.67
2018-06-17T04:10:23.964Z,22.87
2018-06-17T04:15:27.012Z,40.17
2018-06-17T04:20:29.956Z,28.67
2018-06-17T04:25:33.508Z,26.07
2018-06-17T04:30:36.525Z,31.27
2018-06-17T04:35:40.207Z,30.47
2018-06-17T04:40:43.421Z,38.67
2018-06-17T04:45:46.338Z,36.97
2018-06-17T04:50:49.397Z,30.07
2018-06-17T04:55:52.788Z,28.73
2018-06-17T05:00:55.693Z,24.57
2018-06-17T05:05:58.920Z,55.40
2018-06-17T05:11:03.030Z,20.70
2018-06-17T05:16:06.029Z,32.43
2018-06-17T05:21:08.990Z,28.60
2018-06-17T05:26:12.384Z,39.73
2018-06-17T05:31:15.593Z,15.47
2018-06-17T05:36:18.780Z,35.67
2018-06-17T05:41:26.407Z,33.73
2018-06-17T05:46:30.348Z,26.40
2018-06-17T05:51:33.909Z,28.43
2018-06-17T05:56:37.503Z,30.13
2018-06-17T06:01:40.415Z,26.10
2018-06-17T06:06:43.380Z,23.80
2018-06-17T06:11:47.288Z,20.33
2018-06-17T06:16:50.202Z,16.60
2018-06-17T06:21:53.737Z,22.00
2018-06-17T06:26:56.713Z,20.30
2018-06-17T06:31:59.666Z,18.10
2018-06-17T06:37:02.550Z,14.13
2018-06-17T06:42:05.917Z,23.80
2018-06-17T06:47:08.806Z,22.10
2018-06-17T06:52:19.897Z,22.93
2018-06-17T06:57:23.149Z,17.30
2018-06-17T07:02:37.008Z,18.30
2018-06-17T07:07:51.349Z,7.77
2018-06-17T07:12:54.544Z,9.70
2018-06-17T07:18:08.665Z,10.93
2018-06-17T07:23:12.070Z,26.47
2018-06-17T07:28:26.216Z,21.73
2018-06-17T07:33:29.384Z,14.50
2018-06-17T07:38:32.260Z,22.10
2018-06-17T07:43:35.903Z,22.70
2018-06-17T07:49:22.733Z,17.63
2018-06-17T07:54:25.740Z,16.17
2018-06-17T07:59:28.773Z,9.63
2018-06-17T08:04:37.022Z,11.67
2018-06-17T08:09:40.165Z,6.80
2018-06-17T08:14:43.186Z,10.80
2018-06-17T08:19:46.052Z,5.10
2018-06-17T08:24:48.921Z,17.43
2018-06-17T08:29:56.732Z,13.57
2018-06-17T08:35:07.705Z,9.23
2018-06-17T08:40:12.530Z,4.30
2018-06-17T08:45:15.713Z,11.10
2018-06-17T08:50:18.580Z,8.43
2018-06-17T08:55:21.485Z,10.23
2018-06-17T09:00:25.981Z,20.13
2018-06-17T09:05:33.057Z,15.80
2018-06-17T09:10:41.478Z,13.70
2018-06-17T09:15:44.970Z,14.93
2018-06-17T09:20:47.880Z,17.07
2018-06-17T09:25:50.745Z,16.27
2018-06-17T09:30:53.809Z,14.80
2018-06-17T09:35:56.869Z,26.20
2018-06-17T09:41:05.121Z,29.57
2018-06-17T09:46:08.797Z,74.90
2018-06-17T09:51:11.739Z,47.30
2018-06-17T09:56:14.652Z,45.93
2018-06-17T10:01:17.559Z,43.30
2018-06-17T10:06:20.508Z,46.13
2018-06-17T10:11:27.430Z,36.30
2018-06-17T10:16:31.102Z,38.33
2018-06-17T10:21:34.835Z,21.63
2018-06-17T10:26:39.789Z,24.53
2018-06-17T10:31:42.888Z,21.57
2018-06-17T10:36:47.516Z,19.33
2018-06-17T10:41:55.431Z,23.53
2018-06-17T10:47:04.499Z,11.17
2018-06-17T10:52:07.781Z,15.07
2018-06-17T10:57:10.686Z,19.10
2018-06-17T11:02:13.664Z,22.47
2018-06-17T11:07:16.517Z,16.57
2018-06-17T11:12:19.872Z,15.83
2018-06-17T11:17:23.339Z,20.07
2018-06-17T11:22:26.698Z,18.50
2018-06-17T11:27:29.601Z,13.93
2018-06-17T11:32:32.555Z,17.17
2018-06-17T11:37:35.473Z,10.60
2018-06-17T11:42:38.638Z,7.37
2018-06-17T11:47:41.764Z,5.03
2018-06-17T11:52:45.097Z,5.87
2018-06-17T11:57:48.443Z,5.50
2018-06-17T12:02:51.490Z,3.43
2018-06-17T12:07:57.312Z,2.80
2018-06-17T12:13:00.219Z,2.93
2018-06-17T12:18:03.175Z,3.27
2018-06-17T12:23:06.400Z,6.53
2018-06-17T12:28:09.412Z,7.43
2018-06-17T12:33:12.337Z,18.27
2018-06-17T12:38:15.288Z,5.43
2018-06-17T12:43:18.322Z,6.50
2018-06-17T12:48:21.380Z,11.23
2018-06-17T12:53:24.595Z,4.40
2018-06-17T12:58:27.723Z,6.80
2018-06-17T13:03:30.795Z,4.23
2018-06-17T13:08:33.796Z,6.03
2018-06-17T13:13:36.829Z,5.97
2018-06-17T13:18:40.026Z,11.60
2018-06-17T13:23:42.939Z,5.27
2018-06-17T13:28:50.852Z,6.33
2018-06-17T13:33:54.062Z,6.77
2018-06-17T13:38:57.075Z,4.63
2018-06-17T13:43:59.994Z,6.17
2018-06-17T13:49:03.199Z,5.33
2018-06-17T13:54:06.087Z,5.17
2018-06-17T13:59:09.232Z,7.53
2018-06-17T14:04:12.100Z,6.77
2018-06-17T14:09:15.010Z,5.63
2018-06-17T14:14:17.935Z,6.33
2018-06-17T14:19:21.265Z,7.47
2018-06-17T14:24:25.198Z,8.50
2018-06-17T14:29:59.123Z,14.10
2018-06-17T14:35:02.462Z,5.20
2018-06-17T14:40:05.420Z,7.30
2018-06-17T14:45:13.916Z,5.70
2018-06-17T14:50:22.336Z,2.90
2018-06-17T14:55:25.356Z,8.23
2018-06-17T15:00:28.325Z,9.40
2018-06-17T15:05:33.049Z,19.67
2018-06-17T15:10:37.192Z,9.47
2018-06-17T15:15:40.781Z,7.40
2018-06-17T15:20:44.260Z,4.17
2018-06-17T15:25:47.247Z,10.80
2018-06-17T15:30:50.321Z,7.40
2018-06-17T15:35:59.123Z,9.60
2018-06-17T15:41:07.736Z,7.13
2018-06-17T15:46:10.944Z,13.57
2018-06-17T15:51:14.636Z,4.60
2018-06-17T15:56:17.769Z,9.77
2018-06-17T16:01:21.121Z,13.97
2018-06-17T16:06:24.521Z,9.77
2018-06-17T16:11:27.829Z,8.40
2018-06-17T16:16:37.491Z,16.10
2018-06-17T16:21:45.420Z,5.70
2018-06-17T16:26:49.030Z,15.57
2018-06-17T16:31:52.214Z,12.33
2018-06-17T16:36:55.320Z,12.03
2018-06-17T16:41:58.731Z,11.80
2018-06-17T16:47:01.989Z,6.87
2018-06-17T16:52:11.203Z,6.97
2018-06-17T16:57:19.700Z,8.97
2018-06-17T17:02:22.662Z,11.13
2018-06-17T17:07:28.854Z,8.30
2018-06-17T17:12:31.731Z,6.93
2018-06-17T17:17:41.821Z,7.43
2018-06-17T17:22:45.545Z,11.53
2018-06-17T17:27:48.425Z,15.73
2018-06-17T17:32:56.752Z,12.10
2018-06-17T17:38:05.345Z,13.57
2018-06-17T17:43:08.256Z,22.93
2018-06-17T17:48:11.417Z,12.03
2018-06-17T17:53:14.426Z,13.30
2018-06-17T17:58:17.570Z,12.30
2018-06-17T18:03:20.475Z,19.43
2018-06-17T18:08:23.414Z,21.63
2018-06-17T18:13:26.501Z,16.50
2018-06-17T18:18:29.602Z,14.50
2018-06-17T18:23:32.821Z,17.50
2018-06-17T18:28:41.446Z,14.13
2018-06-17T18:33:50.129Z,12.83
2018-06-17T18:38:53.295Z,20.43
2018-06-17T18:43:56.506Z,24.00
2018-06-17T18:48:59.914Z,21.73
2018-06-17T18:54:07.595Z,20.10
2018-06-17T18:59:14.062Z,23.50
2018-06-17T19:04:18.601Z,26.57
2018-06-17T19:09:32.374Z,19.10
2018-06-17T19:14:42.265Z,27.33
2018-06-17T19:19:48.132Z,23.27
2018-06-17T19:24:51.951Z,25.20
2018-06-17T19:29:55.617Z,16.93
2018-06-17T19:34:59.553Z,21.50
2018-06-17T19:40:03.079Z,29.10
2018-06-17T19:45:06.347Z,24.50
2018-06-17T19:50:14.900Z,26.13
2018-06-17T19:55:23.677Z,16.57
2018-06-17T20:00:31.381Z,19.87
2018-06-17T20:05:34.380Z,26.97
2018-06-17T20:10:37.703Z,30.80
2018-06-17T20:15:40.688Z,42.43
2018-06-17T20:20:43.641Z,19.67
2018-06-17T20:25:46.590Z,43.60
2018-06-17T20:30:50.136Z,24.87
2018-06-17T20:35:59.340Z,21.70
2018-06-17T20:41:07.719Z,44.07
2018-06-17T20:46:10.676Z,36.03
2018-06-17T20:51:13.637Z,28.57
2018-06-17T20:56:17.203Z,32.87
2018-06-17T21:01:20.221Z,15.33
2018-06-17T21:06:23.406Z,43.30
2018-06-17T21:11:26.313Z,37.60
2018-06-17T21:16:29.201Z,36.27
2018-06-17T21:21:37.615Z,23.63
2018-06-17T21:26:46.061Z,28.93
2018-06-17T21:31:49.037Z,32.97
2018-06-17T21:36:52.176Z,29.10
2018-06-17T21:41:55.655Z,27.20
2018-06-17T21:46:58.600Z,41.57
2018-06-17T21:52:01.904Z,33.43
2018-06-17T21:57:06.864Z,17.73
2018-06-17T22:02:09.904Z,9.67
2018-06-17T22:07:13.814Z,18.63
2018-06-17T22:12:22.501Z,29.83
2018-06-17T22:17:30.743Z,35.67
2018-06-17T22:22:33.985Z,11.33
2018-06-17T22:27:37.088Z,11.47
2018-06-17T22:32:40.303Z,11.67
2018-06-17T22:37:43.239Z,19.53
2018-06-17T22:42:46.646Z,14.07
2018-06-17T22:47:55.289Z,37.27
2018-06-17T22:53:09.464Z,18.73
2018-06-17T22:58:18.572Z,15.70
2018-06-17T23:03:27.128Z,10.30
2018-06-17T23:08:35.972Z,14.33
2018-06-17T23:13:39.389Z,17.23
2018-06-17T23:18:54.105Z,11.00
2018-06-17T23:23:57.177Z,9.60
2018-06-17T23:29:00.833Z,5.10
2018-06-17T23:34:03.799Z,8.57
2018-06-17T23:39:08.325Z,8.73
2018-06-17T23:44:11.534Z,16.10
2018-06-17T23:49:20.244Z,7.87
2018-06-17T23:54:29.220Z,9.73
2018-06-17T23:59:33.444Z,7.67
